createdAt,value
2022-12-15T00:01:20.876Z,99548.75
2022-12-15T00:04:06.948Z,99549.69
2022-12-15T00:06:53.149Z,99561.28
2022-12-15T00:09:39.071Z,99559.88
2022-12-15T00:12:29.029Z,99570.19
2022-12-15T00:15:15.018Z,99570.66
2022-12-15T00:18:03.416Z,99578.59
2022-12-15T00:20:49.640Z,99576.63
2022-12-15T00:23:36.235Z,99571.41
2022-12-15T00:26:22.755Z,99587.00
2022-12-15T00:29:09.845Z,99578.94
2022-12-15T00:31:55.567Z,99583.84
2022-12-15T00:34:41.574Z,99585.00
2022-12-15T00:37:27.414Z,99611.03
2022-12-15T00:39:59.887Z,99604.75
2022-12-15T00:42:32.339Z,99606.09
2022-12-15T00:45:02.867Z,99611.53
2022-12-15T00:47:33.002Z,99596.34
2022-12-15T00:50:19.109Z,99607.50
2022-12-15T00:53:04.882Z,99607.31
2022-12-15T00:55:51.462Z,99584.69
2022-12-15T00:58:37.439Z,99605.81
2022-12-15T01:01:29.566Z,99607.91
2022-12-15T01:04:15.836Z,99610.50
2022-12-15T01:07:01.998Z,99606.16
2022-12-15T01:09:47.936Z,99613.16
2022-12-15T01:12:34.076Z,99604.72
2022-12-15T01:15:20.125Z,99599.75
2022-12-15T01:18:07.189Z,99613.22
2022-12-15T01:20:35.909Z,99617.50
2022-12-15T01:23:06.316Z,99625.22
2022-12-15T01:25:34.936Z,99626.09
2022-12-15T01:28:03.130Z,99622.59
2022-12-15T01:30:31.680Z,99627.28
2022-12-15T01:33:02.473Z,99624.50
2022-12-15T01:35:30.954Z,99627.66
2022-12-15T01:37:59.365Z,99638.50
2022-12-15T01:40:44.946Z,99645.19
2022-12-15T01:43:15.474Z,99650.28
2022-12-15T01:45:54.942Z,99648.84
2022-12-15T01:48:33.804Z,99638.00
2022-12-15T01:51:10.404Z,99641.69
2022-12-15T01:53:43.236Z,99641.41
2022-12-15T01:56:14.202Z,99640.78
2022-12-15T01:58:45.983Z,99648.22
2022-12-15T02:01:14.706Z,99643.00
2022-12-15T02:03:45.505Z,99648.13
2022-12-15T02:06:14.848Z,99647.09
2022-12-15T02:08:46.488Z,99646.53
2022-12-15T02:12:03.470Z,99654.59
2022-12-15T02:14:47.066Z,99663.19
2022-12-15T02:17:28.273Z,99657.66
2022-12-15T02:20:34.820Z,99653.59
2022-12-15T02:23:48.503Z,99660.34
2022-12-15T02:26:48.019Z,99660.47
2022-12-15T02:29:31.685Z,99661.13
2022-12-15T02:32:04.913Z,99663.06
2022-12-15T02:34:42.397Z,99659.78
2022-12-15T02:37:16.336Z,99661.66
2022-12-15T02:39:45.291Z,99664.44
2022-12-15T02:42:14.191Z,99657.66
2022-12-15T02:44:46.796Z,99661.50
2022-12-15T02:47:25.825Z,99654.22
2022-12-15T02:50:21.104Z,99665.75
2022-12-15T02:53:01.776Z,99668.00
2022-12-15T02:55:40.621Z,99679.06
2022-12-15T02:58:16.661Z,99665.19
2022-12-15T03:00:54.791Z,99672.63
2022-12-15T03:03:26.367Z,99674.63
2022-12-15T03:05:55.384Z,99667.03
2022-12-15T03:08:24.034Z,99670.38
2022-12-15T03:10:56.312Z,99674.69
2022-12-15T03:13:25.150Z,99673.09
2022-12-15T03:15:54.632Z,99678.38
2022-12-15T03:18:24.461Z,99664.72
2022-12-15T03:20:53.775Z,99677.91
2022-12-15T03:23:23.184Z,99664.19
2022-12-15T03:25:51.823Z,99682.72
2022-12-15T03:28:20.278Z,99677.50
2022-12-15T03:30:50.576Z,99682.47
2022-12-15T03:33:19.493Z,99686.44
2022-12-15T03:35:50.021Z,99682.53
2022-12-15T03:38:18.755Z,99675.59
2022-12-15T03:40:47.259Z,99669.22
2022-12-15T03:43:15.431Z,99694.94
2022-12-15T03:45:43.969Z,99689.06
2022-12-15T03:48:12.120Z,99691.63
2022-12-15T03:50:40.916Z,99702.72
2022-12-15T03:53:10.835Z,99695.97
2022-12-15T03:55:39.325Z,99702.81
2022-12-15T03:58:07.821Z,99706.50
2022-12-15T04:00:36.275Z,99701.47
2022-12-15T04:03:04.638Z,99713.22
2022-12-15T04:05:35.149Z,99713.69
2022-12-15T04:08:04.111Z,99718.69
2022-12-15T04:10:35.783Z,99716.03
2022-12-15T04:13:07.727Z,99717.31
2022-12-15T04:15:37.470Z,99710.59
2022-12-15T04:18:10.180Z,99721.16
2022-12-15T04:20:39.123Z,99728.47
2022-12-15T04:23:08.188Z,99726.97
2022-12-15T04:25:55.823Z,99729.06
2022-12-15T04:28:41.959Z,99725.56
2022-12-15T04:31:29.523Z,99739.81
2022-12-15T04:34:19.851Z,99735.06
2022-12-15T04:37:08.435Z,99744.03
2022-12-15T04:39:54.688Z,99743.53
2022-12-15T04:42:42.664Z,99750.13
2022-12-15T04:45:30.461Z,99736.34
2022-12-15T04:48:16.527Z,99748.50
2022-12-15T04:51:02.589Z,99753.66
2022-12-15T04:53:48.809Z,99738.28
2022-12-15T04:56:35.084Z,99755.47
2022-12-15T04:59:22.748Z,99758.31
2022-12-15T05:02:09.103Z,99763.69
2022-12-15T05:04:57.996Z,99765.47
2022-12-15T05:07:44.153Z,99766.47
2022-12-15T05:10:30.897Z,99766.38
2022-12-15T05:13:23.126Z,99759.94
2022-12-15T05:16:10.457Z,99787.84
2022-12-15T05:18:56.554Z,99784.72
2022-12-15T05:21:43.493Z,99785.44
2022-12-15T05:24:29.462Z,99782.41
2022-12-15T05:27:17.397Z,99775.91
2022-12-15T05:30:03.351Z,99790.09
2022-12-15T05:32:34.887Z,99784.16
2022-12-15T05:35:03.448Z,99783.78
2022-12-15T05:37:34.487Z,99788.22
2022-12-15T05:40:03.062Z,99788.44
2022-12-15T05:42:32.069Z,99728.34
2022-12-15T05:45:00.269Z,99788.44
2022-12-15T05:47:28.777Z,99793.28
2022-12-15T05:49:58.335Z,99791.81
2022-12-15T05:52:26.768Z,99788.41
2022-12-15T05:54:54.963Z,99809.31
2022-12-15T05:57:23.500Z,99807.78
2022-12-15T05:59:51.656Z,99803.34
2022-12-15T06:02:20.196Z,99809.25
2022-12-15T06:04:48.783Z,99809.72
2022-12-15T06:07:19.301Z,99808.25
2022-12-15T06:09:48.091Z,99808.44
2022-12-15T06:12:16.702Z,99818.91
2022-12-15T06:14:45.323Z,99817.31
2022-12-15T06:17:14.099Z,99821.16
2022-12-15T06:19:42.631Z,99825.09
2022-12-15T06:22:10.849Z,99822.84
2022-12-15T06:24:40.671Z,99818.88
2022-12-15T06:27:09.242Z,99816.53
2022-12-15T06:29:40.233Z,99820.47
2022-12-15T06:32:08.683Z,99828.31
2022-12-15T06:34:37.181Z,99828.16
2022-12-15T06:37:05.575Z,99830.47
2022-12-15T06:39:33.817Z,99843.66
2022-12-15T06:42:03.591Z,99836.97
2022-12-15T06:44:32.116Z,99837.06
2022-12-15T06:47:00.350Z,99843.47
2022-12-15T06:49:28.730Z,99849.00
2022-12-15T06:51:57.022Z,99858.25
2022-12-15T06:54:31.100Z,99848.63
2022-12-15T06:56:59.835Z,99862.09
2022-12-15T06:59:29.782Z,99844.38
2022-12-15T07:01:58.597Z,99861.47
2022-12-15T07:04:28.056Z,99859.59
2022-12-15T07:06:56.993Z,99865.53
2022-12-15T07:09:27.687Z,99862.88
2022-12-15T07:11:56.353Z,99854.06
2022-12-15T07:14:26.056Z,99871.13
2022-12-15T07:16:56.012Z,99874.44
2022-12-15T07:19:32.676Z,99865.28
2022-12-15T07:22:01.623Z,99868.13
2022-12-15T07:24:30.178Z,99877.22
2022-12-15T07:26:59.224Z,99865.28
2022-12-15T07:29:29.911Z,99875.44
2022-12-15T07:32:01.997Z,99878.28
2022-12-15T07:34:30.814Z,99888.84
2022-12-15T07:37:01.078Z,99886.63
2022-12-15T07:39:29.700Z,99888.63
2022-12-15T07:41:57.971Z,99881.59
2022-12-15T07:44:29.593Z,99880.81
2022-12-15T07:46:59.657Z,99874.44
2022-12-15T07:49:28.111Z,99856.50
2022-12-15T07:51:58.553Z,99877.34
2022-12-15T07:54:27.564Z,99878.06
2022-12-15T07:56:56.311Z,99871.34
2022-12-15T07:59:25.021Z,99881.09
2022-12-15T08:01:53.964Z,99880.75
2022-12-15T08:04:25.332Z,99871.09
2022-12-15T08:06:55.517Z,99879.84
2022-12-15T08:09:24.157Z,99870.63
2022-12-15T08:11:53.010Z,99890.47
2022-12-15T08:14:22.269Z,99890.72
2022-12-15T08:16:51.381Z,99891.88
2022-12-15T08:19:20.058Z,99915.56
2022-12-15T08:21:50.123Z,99916.53
2022-12-15T08:24:19.717Z,99911.22
2022-12-15T08:26:50.011Z,99901.09
2022-12-15T08:32:08.079Z,99914.78
2022-12-15T08:34:36.998Z,99904.91
2022-12-15T08:37:06.946Z,99884.69
2022-12-15T08:39:35.371Z,99862.94
2022-12-15T08:42:03.618Z,99870.66
2022-12-15T08:44:32.079Z,99881.50
2022-12-15T08:47:00.827Z,99897.38
2022-12-15T08:49:29.469Z,99903.28
2022-12-15T08:51:57.591Z,99900.75
2022-12-15T08:54:34.736Z,99910.72
2022-12-15T08:57:03.274Z,99895.06
2022-12-15T08:59:31.444Z,99901.75
2022-12-15T09:02:00.782Z,99897.63
2022-12-15T09:04:29.630Z,99897.13
2022-12-15T09:06:58.323Z,99897.28
2022-12-15T09:09:28.127Z,99897.16
2022-12-15T09:11:56.650Z,99905.88
2022-12-15T09:14:29.240Z,99903.56
2022-12-15T09:16:58.388Z,99893.06
2022-12-15T09:19:27.129Z,99901.44
2022-12-15T09:21:55.810Z,99891.16
2022-12-15T09:24:32.489Z,99890.00
2022-12-15T09:27:05.513Z,99890.31
2022-12-15T09:29:35.168Z,99886.94
2022-12-15T09:32:10.537Z,99900.56
2022-12-15T09:34:42.360Z,99892.19
2022-12-15T09:37:10.595Z,99890.72
2022-12-15T09:39:39.741Z,99891.38
2022-12-15T09:42:25.025Z,99896.41
2022-12-15T09:45:02.699Z,99898.41
2022-12-15T09:47:44.179Z,99879.75
2022-12-15T09:50:15.365Z,99880.13
2022-12-15T09:52:49.758Z,99877.72
2022-12-15T09:55:22.330Z,99866.34
2022-12-15T09:58:06.084Z,99865.63
2022-12-15T10:00:52.224Z,99863.56
2022-12-15T10:03:39.355Z,99862.91
2022-12-15T10:06:16.518Z,99853.75
2022-12-15T10:08:53.796Z,99835.41
2022-12-15T10:11:37.299Z,99839.56
2022-12-15T10:14:15.747Z,99833.53
2022-12-15T10:16:57.561Z,99833.81
2022-12-15T10:19:32.923Z,99830.00
2022-12-15T10:22:01.686Z,99812.53
2022-12-15T10:27:40.022Z,99811.63
2022-12-15T10:30:13.777Z,99813.91
2022-12-15T10:32:51.470Z,99809.38
2022-12-15T10:35:23.498Z,99796.22
2022-12-15T10:37:52.831Z,99808.28
2022-12-15T10:40:45.357Z,99807.91
2022-12-15T10:43:27.689Z,99805.75
2022-12-15T10:46:12.483Z,99810.94
2022-12-15T10:48:42.017Z,99802.19
2022-12-15T10:51:20.168Z,99803.06
2022-12-15T10:53:51.043Z,99802.03
2022-12-15T10:56:32.432Z,99815.25
2022-12-15T10:59:25.834Z,99828.88
2022-12-15T11:01:56.195Z,99829.47
2022-12-15T11:04:29.195Z,99822.31
2022-12-15T11:06:58.887Z,99821.72
2022-12-15T11:09:33.154Z,99819.75
2022-12-15T11:12:19.559Z,99817.72
2022-12-15T11:14:49.944Z,99820.81
2022-12-15T11:17:22.940Z,99820.72
2022-12-15T11:20:03.061Z,99835.41
2022-12-15T11:22:41.057Z,99838.13
2022-12-15T11:25:21.803Z,99849.28
2022-12-15T11:27:57.480Z,99863.06
2022-12-15T11:30:31.717Z,99859.09
2022-12-15T11:33:03.306Z,99849.44
2022-12-15T11:35:54.653Z,99856.28
2022-12-15T11:38:34.027Z,99866.00
2022-12-15T11:41:10.237Z,99860.22
2022-12-15T11:44:06.627Z,99865.78
2022-12-15T11:46:44.247Z,99864.78
2022-12-15T11:53:05.165Z,99851.34
2022-12-15T11:55:43.180Z,99850.44
2022-12-15T11:58:37.593Z,99847.25
2022-12-15T12:01:13.422Z,99853.97
2022-12-15T12:03:55.466Z,99845.09
2022-12-15T12:06:36.065Z,99842.97
2022-12-15T12:09:29.187Z,99842.81
2022-12-15T12:12:06.276Z,99840.69
2022-12-15T12:14:45.642Z,99836.63
2022-12-15T12:17:28.623Z,99836.22
2022-12-15T12:20:05.014Z,99822.72
2022-12-15T12:22:44.037Z,99814.88
2022-12-15T12:25:20.239Z,99816.19
2022-12-15T12:27:54.280Z,99801.44
2022-12-15T12:30:26.044Z,99816.38
2022-12-15T12:33:01.483Z,99810.84
2022-12-15T12:35:38.906Z,99815.06
2022-12-15T12:38:11.389Z,99818.44
2022-12-15T12:40:53.427Z,99811.41
2022-12-15T12:43:33.256Z,99795.63
2022-12-15T12:46:08.445Z,99773.00
2022-12-15T12:48:40.366Z,99793.41
2022-12-15T12:51:20.490Z,99794.09
2022-12-15T12:53:51.407Z,99770.31
2022-12-15T12:56:37.791Z,99782.56
2022-12-15T12:59:27.987Z,99767.22
2022-12-15T13:01:57.617Z,99775.19
2022-12-15T13:04:41.973Z,99775.19
2022-12-15T13:07:32.135Z,99768.88
2022-12-15T13:10:15.334Z,99762.53
2022-12-15T13:12:51.671Z,99770.72
2022-12-15T13:15:35.215Z,99759.94
2022-12-15T13:18:11.945Z,99747.72
2022-12-15T13:20:44.082Z,99743.13
2022-12-15T13:23:41.478Z,99748.41
2022-12-15T13:26:16.400Z,99732.44
2022-12-15T13:28:53.041Z,99739.25
2022-12-15T13:31:56.630Z,99739.84
2022-12-15T13:34:27.577Z,99733.47
2022-12-15T13:37:01.267Z,99731.66
2022-12-15T13:40:01.187Z,99720.44
2022-12-15T13:42:53.126Z,99729.19
2022-12-15T13:45:50.714Z,99713.44
2022-12-15T13:48:36.897Z,99701.00
2022-12-15T13:51:38.713Z,99698.97
2022-12-15T13:54:16.726Z,99698.53
2022-12-15T13:56:59.934Z,99686.16
2022-12-15T13:59:38.373Z,99688.50
2022-12-15T14:02:25.804Z,99671.88
2022-12-15T14:05:12.959Z,99675.22
2022-12-15T14:07:45.408Z,99678.84
2022-12-15T14:10:22.583Z,99672.88
2022-12-15T14:12:53.066Z,99671.63
2022-12-15T14:15:29.179Z,99682.69
2022-12-15T14:17:59.471Z,99667.41
2022-12-15T14:20:29.852Z,99674.94
2022-12-15T14:22:59.182Z,99678.59
2022-12-15T14:25:30.768Z,99677.50
2022-12-15T14:27:59.636Z,99684.19
2022-12-15T14:30:33.071Z,99680.47
2022-12-15T14:33:05.321Z,99679.78
2022-12-15T14:35:40.247Z,99681.66
2022-12-15T14:38:13.255Z,99653.81
2022-12-15T14:40:43.289Z,99663.63
2022-12-15T14:43:24.469Z,99647.78
2022-12-15T14:46:06.445Z,99650.09
2022-12-15T14:48:42.317Z,99635.59
2022-12-15T14:54:00.860Z,99624.28
2022-12-15T14:56:31.682Z,99653.34
2022-12-15T14:59:04.870Z,99641.00
2022-12-15T15:01:41.151Z,99663.97
2022-12-15T15:04:26.033Z,99658.94
2022-12-15T15:07:01.635Z,99649.22
2022-12-15T15:09:34.861Z,99646.44
2022-12-15T15:12:24.673Z,99655.03
2022-12-15T15:15:00.559Z,99638.09
2022-12-15T15:17:45.825Z,99653.19
2022-12-15T15:20:21.644Z,99657.47
2022-12-15T15:23:05.548Z,99634.63
2022-12-15T15:25:40.184Z,99637.44
2022-12-15T15:28:21.598Z,99639.75
2022-12-15T15:30:56.114Z,99655.44
2022-12-15T15:33:28.817Z,99660.53
2022-12-15T15:35:59.690Z,99643.34
2022-12-15T15:38:32.531Z,99649.44
2022-12-15T15:41:03.043Z,99637.22
2022-12-15T15:43:31.639Z,99634.09
2022-12-15T15:46:03.773Z,99660.31
2022-12-15T15:48:37.850Z,99654.41
2022-12-15T15:51:07.547Z,99640.66
2022-12-15T15:53:36.946Z,99666.75
2022-12-15T15:56:08.316Z,99658.44
2022-12-15T15:58:37.189Z,99650.78
2022-12-15T16:01:12.706Z,99644.00
2022-12-15T16:03:43.866Z,99631.94
2022-12-15T16:06:18.428Z,99641.63
2022-12-15T16:08:52.531Z,99647.47
2022-12-15T16:11:25.419Z,99643.75
2022-12-15T16:14:03.984Z,99627.84
2022-12-15T16:16:35.991Z,99611.63
2022-12-15T16:19:16.080Z,99619.53
2022-12-15T16:21:46.591Z,99592.31
2022-12-15T16:24:18.931Z,99602.31
2022-12-15T16:26:52.133Z,99587.63
2022-12-15T16:29:22.214Z,99587.34
2022-12-15T16:31:53.759Z,99588.13
2022-12-15T16:34:24.897Z,99571.13
2022-12-15T16:36:53.726Z,99559.41
2022-12-15T16:39:37.897Z,99534.94
2022-12-15T16:42:11.128Z,99539.41
2022-12-15T16:44:39.651Z,99525.06
2022-12-15T16:47:07.846Z,99531.91
2022-12-15T16:49:40.252Z,99520.47
2022-12-15T16:52:15.423Z,99501.50
2022-12-15T16:54:46.532Z,99518.94
2022-12-15T16:57:16.109Z,99522.13
2022-12-15T16:59:47.535Z,99523.13
2022-12-15T17:02:29.290Z,99511.28
2022-12-15T17:04:59.546Z,99505.25
2022-12-15T17:07:29.757Z,99496.16
2022-12-15T17:09:58.501Z,99503.44
2022-12-15T17:12:27.181Z,99491.31
2022-12-15T17:14:57.639Z,99476.00
2022-12-15T17:17:26.899Z,99506.13
2022-12-15T17:20:28.035Z,99493.72
2022-12-15T17:22:47.063Z,99483.59
2022-12-15T17:25:51.960Z,99484.22
2022-12-15T17:28:17.149Z,99474.16
2022-12-15T17:30:46.600Z,99469.97
2022-12-15T17:33:20.674Z,99461.72
2022-12-15T17:36:03.064Z,99470.66
2022-12-15T17:38:35.172Z,99462.09
2022-12-15T17:41:03.739Z,99444.41
2022-12-15T17:43:35.955Z,99436.34
2022-12-15T17:46:05.264Z,99430.97
2022-12-15T17:48:33.985Z,99400.38
2022-12-15T17:51:02.599Z,99412.72
2022-12-15T17:53:34.856Z,99404.50
2022-12-15T17:56:03.670Z,99390.59
2022-12-15T17:58:32.357Z,99401.34
2022-12-15T18:01:03.988Z,99402.06
2022-12-15T18:03:35.887Z,99404.53
2022-12-15T18:06:05.544Z,99369.59
2022-12-15T18:08:36.378Z,99372.91
2022-12-15T18:11:05.163Z,99383.00
2022-12-15T18:13:35.820Z,99373.25
2022-12-15T18:16:04.798Z,99355.97
2022-12-15T18:18:35.072Z,99340.75
2022-12-15T18:21:12.377Z,99351.44
2022-12-15T18:23:47.755Z,99357.03
2022-12-15T18:26:16.648Z,99333.34
2022-12-15T18:29:30.144Z,99337.69
2022-12-15T18:32:21.934Z,99249.63
2022-12-15T18:34:56.819Z,99309.41
2022-12-15T18:37:28.319Z,99291.88
2022-12-15T18:40:04.845Z,99291.16
2022-12-15T18:42:34.698Z,99270.91
2022-12-15T18:45:05.246Z,99271.16
2022-12-15T18:47:34.250Z,99252.78
2022-12-15T18:50:02.787Z,99255.31
2022-12-15T18:52:34.812Z,99245.88
2022-12-15T18:55:05.609Z,99251.59
2022-12-15T18:57:36.932Z,99222.59
2022-12-15T19:00:17.765Z,99236.25
2022-12-15T19:02:50.137Z,99252.88
2022-12-15T19:05:32.894Z,99221.63
2022-12-15T19:08:05.503Z,99242.34
2022-12-15T19:10:36.037Z,99225.59
2022-12-15T19:13:05.343Z,99225.47
2022-12-15T19:15:33.878Z,99228.66
2022-12-15T19:18:19.451Z,99245.88
2022-12-15T19:21:05.493Z,99227.03
2022-12-15T19:23:34.957Z,99232.97
2022-12-15T19:26:09.002Z,99233.19
2022-12-15T19:28:39.410Z,99204.34
2022-12-15T19:31:09.328Z,99211.81
2022-12-15T19:33:37.932Z,99224.06
2022-12-15T19:36:11.389Z,99196.06
2022-12-15T19:38:39.976Z,99196.97
2022-12-15T19:41:13.185Z,99215.16
2022-12-15T19:43:42.456Z,99203.28
2022-12-15T19:46:16.545Z,99220.03
2022-12-15T19:48:45.201Z,99215.81
2022-12-15T19:51:16.379Z,99215.09
2022-12-15T19:53:46.949Z,99211.50
2022-12-15T19:56:20.966Z,99206.41
2022-12-15T19:58:51.678Z,99199.94
2022-12-15T20:01:23.527Z,99212.88
2022-12-15T20:03:54.295Z,99206.38
2022-12-15T20:06:25.688Z,99199.75
2022-12-15T20:08:57.048Z,99196.25
2022-12-15T20:11:29.860Z,99187.28
2022-12-15T20:14:01.370Z,99189.97
2022-12-15T20:16:30.215Z,99185.84
2022-12-15T20:18:59.306Z,99190.59
2022-12-15T20:21:36.863Z,99178.06
2022-12-15T20:24:09.266Z,99164.09
2022-12-15T20:26:40.650Z,99161.22
2022-12-15T20:29:22.347Z,99164.59
2022-12-15T20:31:51.004Z,99172.56
2022-12-15T20:34:19.976Z,99165.44
2022-12-15T20:36:48.623Z,99158.47
2022-12-15T20:39:21.782Z,99171.25
2022-12-15T20:41:51.832Z,99161.69
2022-12-15T20:44:20.894Z,99146.38
2022-12-15T20:46:49.399Z,99165.63
2022-12-15T20:49:18.633Z,99159.31
2022-12-15T20:51:48.152Z,99147.69
2022-12-15T20:54:19.299Z,99155.69
2022-12-15T20:56:48.863Z,99142.56
2022-12-15T20:59:19.349Z,99136.31
2022-12-15T21:01:48.274Z,99140.53
2022-12-15T21:04:26.075Z,99137.31
2022-12-15T21:06:55.555Z,99142.06
2022-12-15T21:09:25.190Z,99118.47
2022-12-15T21:11:55.269Z,99097.00
2022-12-15T21:14:26.117Z,99102.13
2022-12-15T21:16:55.449Z,99099.16
2022-12-15T21:19:24.886Z,99099.84
2022-12-15T21:24:56.955Z,99100.94
2022-12-15T21:27:36.552Z,99095.50
2022-12-15T21:30:41.073Z,99096.94
2022-12-15T21:33:11.887Z,99084.19
2022-12-15T21:35:41.875Z,99091.66
2022-12-15T21:38:50.379Z,99068.66
2022-12-15T21:41:23.476Z,99070.06
2022-12-15T21:43:52.149Z,99069.50
2022-12-15T21:46:27.882Z,99074.94
2022-12-15T21:49:14.609Z,99073.28
2022-12-15T21:51:45.344Z,99053.69
2022-12-15T21:54:22.849Z,99066.44
2022-12-15T21:56:54.741Z,99070.06
2022-12-15T21:59:25.620Z,99064.31
2022-12-15T22:01:56.307Z,99073.59
2022-12-15T22:04:29.466Z,99066.38
2022-12-15T22:06:58.000Z,99072.81
2022-12-15T22:09:26.503Z,99067.91
2022-12-15T22:11:55.873Z,99077.63
2022-12-15T22:14:27.369Z,99075.63
2022-12-15T22:16:57.894Z,99072.34
2022-12-15T22:19:26.556Z,99053.41
2022-12-15T22:21:55.322Z,99066.13
2022-12-15T22:24:23.820Z,99041.72
2022-12-15T22:26:52.241Z,99069.19
2022-12-15T22:29:23.157Z,99072.22
2022-12-15T22:31:52.030Z,99051.78
2022-12-15T22:34:23.483Z,99054.19
2022-12-15T22:36:52.651Z,99056.00
2022-12-15T22:39:24.532Z,99063.00
2022-12-15T22:41:53.743Z,99053.88
2022-12-15T22:44:25.163Z,99056.53
2022-12-15T22:46:56.884Z,99043.97
2022-12-15T22:49:31.910Z,99045.91
2022-12-15T22:52:00.397Z,99034.25
2022-12-15T22:54:30.397Z,99043.59
2022-12-15T22:57:01.826Z,99049.22
2022-12-15T22:59:34.579Z,99046.25
2022-12-15T23:02:03.848Z,99041.56
2022-12-15T23:04:34.022Z,99032.25
2022-12-15T23:07:04.855Z,99048.13
2022-12-15T23:09:33.371Z,99044.56
2022-12-15T23:12:00.744Z,99055.38
2022-12-15T23:14:43.049Z,99038.00
2022-12-15T23:17:12.681Z,99047.59
2022-12-15T23:19:45.835Z,99042.41
2022-12-15T23:22:14.835Z,99040.72
2022-12-15T23:24:43.417Z,99049.97
2022-12-15T23:27:12.436Z,99038.06
2022-12-15T23:29:41.127Z,99035.00
2022-12-15T23:32:09.291Z,99043.44
2022-12-15T23:34:37.742Z,99040.88
2022-12-15T23:37:07.308Z,99048.81
2022-12-15T23:39:36.852Z,99038.75
2022-12-15T23:42:06.112Z,99029.88
2022-12-15T23:44:34.666Z,99039.56
2022-12-15T23:47:02.939Z,99031.44
2022-12-15T23:49:33.407Z,99026.00
2022-12-15T23:52:01.968Z,99027.44
2022-12-15T23:54:31.585Z,99021.03
2022-12-15T23:56:59.923Z,99023.41
2022-12-15T23:59:28.349Z,99022.69
